createdAt,value
2022-12-31T00:01:17.685Z,10.68
2022-12-31T00:06:23.616Z,10.69
2022-12-31T00:11:28.179Z,10.71
2022-12-31T00:16:36.402Z,10.75
2022-12-31T00:21:40.212Z,10.84
2022-12-31T00:26:43.076Z,10.88
2022-12-31T00:31:47.278Z,10.89
2022-12-31T00:36:50.142Z,10.90
2022-12-31T00:41:53.071Z,10.95
2022-12-31T00:46:57.323Z,10.98
2022-12-31T00:52:00.237Z,11.02
2022-12-31T00:57:03.171Z,11.05
2022-12-31T01:02:07.742Z,11.06
2022-12-31T01:07:11.014Z,11.06
2022-12-31T01:12:13.909Z,11.05
2022-12-31T01:17:18.208Z,11.08
2022-12-31T01:22:21.111Z,11.07
2022-12-31T01:27:23.939Z,11.07
2022-12-31T01:32:28.220Z,11.12
2022-12-31T01:37:31.091Z,11.12
2022-12-31T01:42:33.930Z,11.10
2022-12-31T01:47:41.187Z,11.13
2022-12-31T01:52:46.544Z,11.16
2022-12-31T01:57:52.926Z,11.19
2022-12-31T02:02:57.345Z,11.25
2022-12-31T02:08:00.430Z,11.27
2022-12-31T02:13:03.461Z,11.30
2022-12-31T02:18:13.798Z,11.27
2022-12-31T02:23:51.715Z,11.23
2022-12-31T02:29:28.341Z,11.22
2022-12-31T02:34:34.633Z,11.23
2022-12-31T02:39:37.847Z,11.21
2022-12-31T02:44:42.733Z,11.21
2022-12-31T02:49:55.961Z,11.24
2022-12-31T02:55:06.300Z,11.28
2022-12-31T03:00:29.187Z,11.32
2022-12-31T03:05:37.981Z,11.38
2022-12-31T03:10:41.086Z,11.38
2022-12-31T03:15:43.863Z,11.38
2022-12-31T03:21:08.198Z,11.42
2022-12-31T03:26:13.037Z,11.43
2022-12-31T03:31:16.165Z,11.51
2022-12-31T03:36:20.350Z,11.60
2022-12-31T03:41:23.209Z,11.64
2022-12-31T03:46:26.008Z,11.69
2022-12-31T03:51:30.036Z,11.73
2022-12-31T03:56:32.807Z,11.78
2022-12-31T04:01:35.648Z,11.84
2022-12-31T04:06:39.743Z,11.89
2022-12-31T04:11:42.563Z,11.94
2022-12-31T04:16:45.813Z,12.01
2022-12-31T04:21:50.034Z,12.03
2022-12-31T04:26:52.838Z,12.04
2022-12-31T04:31:55.785Z,12.05
2022-12-31T04:37:00.084Z,12.08
2022-12-31T04:42:02.850Z,12.13
2022-12-31T04:47:05.708Z,12.16
2022-12-31T04:52:09.812Z,12.15
2022-12-31T04:57:12.497Z,12.20
2022-12-31T05:02:15.834Z,12.25
2022-12-31T05:07:21.005Z,12.29
2022-12-31T05:12:23.715Z,12.37
2022-12-31T05:17:26.432Z,12.43
2022-12-31T05:22:30.639Z,12.48
2022-12-31T05:27:33.651Z,12.45
2022-12-31T05:32:36.722Z,12.45
2022-12-31T05:37:41.001Z,12.47
2022-12-31T05:42:43.744Z,12.49
2022-12-31T05:47:47.073Z,12.51
2022-12-31T05:52:51.127Z,12.51
2022-12-31T05:57:53.895Z,12.55
2022-12-31T06:02:56.715Z,12.58
2022-12-31T06:08:00.947Z,12.56
2022-12-31T06:13:03.856Z,12.61
2022-12-31T06:18:07.502Z,12.65
2022-12-31T06:23:11.639Z,12.78
2022-12-31T06:28:20.142Z,12.85
2022-12-31T06:33:23.382Z,12.93
2022-12-31T06:38:28.602Z,13.03
2022-12-31T06:43:31.366Z,13.13
2022-12-31T06:48:35.005Z,13.18
2022-12-31T06:53:39.326Z,13.27
2022-12-31T06:58:42.680Z,13.31
2022-12-31T07:03:47.647Z,13.41
2022-12-31T07:08:57.765Z,13.43
2022-12-31T07:14:15.024Z,13.44
2022-12-31T07:19:24.240Z,13.45
2022-12-31T07:24:29.369Z,13.47
2022-12-31T07:29:42.660Z,13.47
2022-12-31T07:34:50.691Z,13.58
2022-12-31T07:40:03.105Z,13.68
2022-12-31T07:45:13.074Z,13.77
2022-12-31T07:50:18.158Z,13.85
2022-12-31T07:55:22.303Z,13.83
2022-12-31T08:00:25.691Z,13.85
2022-12-31T08:05:32.605Z,13.89
2022-12-31T08:10:39.993Z,13.93
2022-12-31T08:15:43.169Z,13.94
2022-12-31T08:20:53.767Z,13.99
2022-12-31T08:26:10.697Z,13.98
2022-12-31T08:31:17.644Z,14.00
2022-12-31T08:36:26.460Z,14.10
2022-12-31T08:41:42.284Z,14.12
2022-12-31T08:46:51.478Z,14.19
2022-12-31T08:51:54.860Z,14.26
2022-12-31T08:57:05.427Z,14.35
2022-12-31T09:02:27.771Z,14.44
2022-12-31T09:07:36.673Z,14.45
2022-12-31T09:12:46.102Z,14.48
2022-12-31T09:17:50.433Z,14.56
2022-12-31T09:22:54.086Z,14.64
2022-12-31T09:28:09.620Z,14.69
2022-12-31T09:33:14.217Z,14.70
2022-12-31T09:38:19.834Z,14.78
2022-12-31T09:43:59.047Z,14.80
2022-12-31T09:49:33.280Z,14.90
2022-12-31T09:54:50.597Z,15.00
2022-12-31T09:59:58.816Z,15.04
2022-12-31T10:05:17.537Z,15.13
2022-12-31T10:10:24.007Z,15.20
2022-12-31T10:15:59.896Z,15.23
2022-12-31T10:21:11.344Z,15.32
2022-12-31T10:26:27.581Z,15.46
2022-12-31T10:31:39.967Z,15.56
2022-12-31T10:37:05.132Z,15.72
2022-12-31T10:42:50.078Z,16.02
2022-12-31T10:48:32.119Z,16.01
2022-12-31T10:53:53.349Z,16.12
2022-12-31T10:59:22.471Z,16.17
2022-12-31T11:04:58.193Z,16.05
2022-12-31T11:10:48.949Z,16.09
2022-12-31T11:16:04.213Z,16.18
2022-12-31T11:21:26.258Z,16.21
2022-12-31T11:26:42.148Z,16.25
2022-12-31T11:32:07.847Z,16.27
2022-12-31T11:37:29.456Z,16.21
2022-12-31T11:42:41.816Z,16.14
2022-12-31T11:53:36.101Z,16.18
2022-12-31T11:58:38.907Z,16.23
2022-12-31T12:03:43.753Z,16.17
2022-12-31T12:08:48.447Z,16.10
2022-12-31T12:13:51.803Z,16.07
2022-12-31T12:19:04.172Z,16.10
2022-12-31T12:24:23.141Z,16.18
2022-12-31T12:29:29.460Z,16.32
2022-12-31T12:34:34.267Z,16.42
2022-12-31T12:39:38.441Z,16.42
2022-12-31T12:44:42.699Z,16.42
2022-12-31T12:49:47.411Z,16.45
2022-12-31T12:55:01.582Z,16.47
2022-12-31T13:00:09.931Z,16.51
2022-12-31T13:05:26.002Z,16.44
2022-12-31T13:10:50.279Z,16.41
2022-12-31T13:15:58.662Z,16.49
2022-12-31T13:21:04.691Z,16.59
2022-12-31T13:26:12.275Z,16.71
2022-12-31T13:31:18.326Z,16.70
2022-12-31T13:36:22.757Z,16.70
2022-12-31T13:41:29.465Z,16.73
2022-12-31T13:46:38.651Z,16.69
2022-12-31T13:51:44.386Z,16.58
2022-12-31T13:56:49.465Z,16.49
2022-12-31T14:01:54.802Z,16.44
2022-12-31T14:07:00.221Z,16.33
2022-12-31T14:12:14.509Z,16.34
2022-12-31T14:17:22.868Z,16.31
2022-12-31T14:22:32.354Z,16.30
2022-12-31T14:27:38.696Z,16.32
2022-12-31T14:33:03.552Z,16.37
2022-12-31T14:38:12.223Z,16.40
2022-12-31T14:43:22.319Z,16.44
2022-12-31T14:48:34.242Z,16.42
2022-12-31T14:53:37.203Z,16.33
2022-12-31T14:58:42.475Z,16.21
2022-12-31T15:03:46.478Z,16.10
2022-12-31T15:08:56.342Z,15.97
2022-12-31T15:14:17.708Z,15.87
2022-12-31T15:19:57.041Z,15.73
2022-12-31T15:25:00.912Z,15.64
2022-12-31T15:30:07.347Z,15.52
2022-12-31T15:35:27.602Z,15.46
2022-12-31T15:40:31.005Z,15.42
2022-12-31T15:45:38.990Z,15.43
2022-12-31T15:50:43.156Z,15.44
2022-12-31T15:55:49.558Z,15.43
2022-12-31T16:00:59.394Z,15.48
2022-12-31T16:06:03.993Z,15.50
2022-12-31T16:11:07.400Z,15.57
2022-12-31T16:16:21.794Z,15.62
2022-12-31T16:21:26.778Z,15.62
2022-12-31T16:26:34.105Z,15.64
2022-12-31T16:31:40.494Z,15.72
2022-12-31T16:36:43.552Z,15.73
2022-12-31T16:41:46.668Z,15.75
2022-12-31T16:46:50.945Z,15.73
2022-12-31T16:51:56.773Z,15.74
2022-12-31T16:57:00.221Z,15.72
2022-12-31T17:02:05.857Z,15.72
2022-12-31T17:07:27.957Z,15.74
2022-12-31T17:12:52.644Z,15.73
2022-12-31T17:17:59.261Z,15.72
2022-12-31T17:23:04.773Z,15.71
2022-12-31T17:28:15.323Z,15.73
2022-12-31T17:33:30.826Z,15.66
2022-12-31T17:38:34.157Z,15.66
2022-12-31T17:43:37.980Z,15.60
2022-12-31T17:48:42.442Z,15.53
2022-12-31T17:53:45.604Z,15.43
2022-12-31T17:58:51.235Z,15.42
2022-12-31T18:03:56.874Z,15.37
2022-12-31T18:08:59.657Z,15.32
2022-12-31T18:14:02.393Z,15.35
2022-12-31T18:19:23.463Z,15.32
2022-12-31T18:24:33.742Z,15.36
2022-12-31T18:29:36.497Z,15.37
2022-12-31T18:34:40.634Z,15.31
2022-12-31T18:39:43.452Z,15.33
2022-12-31T18:44:46.514Z,15.33
2022-12-31T18:49:50.861Z,15.35
2022-12-31T18:54:53.698Z,15.36
2022-12-31T18:59:56.419Z,15.40
2022-12-31T19:05:00.498Z,15.46
2022-12-31T19:10:03.343Z,15.48
2022-12-31T19:15:16.930Z,15.51
2022-12-31T19:20:20.996Z,15.57
2022-12-31T19:25:25.245Z,15.58
2022-12-31T19:30:30.148Z,15.66
2022-12-31T19:35:34.377Z,15.66
2022-12-31T19:40:37.083Z,15.70
2022-12-31T19:45:41.464Z,15.73
2022-12-31T19:50:47.081Z,15.77
2022-12-31T19:55:50.347Z,15.81
2022-12-31T20:00:58.259Z,15.80
2022-12-31T20:06:07.847Z,15.76
2022-12-31T20:11:12.061Z,15.76
2022-12-31T20:16:16.877Z,15.71
2022-12-31T20:21:23.043Z,15.72
2022-12-31T20:26:26.852Z,15.67
2022-12-31T20:31:29.739Z,15.72
2022-12-31T20:36:33.847Z,15.74
2022-12-31T20:41:36.620Z,15.65
2022-12-31T20:46:39.530Z,15.52
2022-12-31T20:51:48.804Z,15.44
2022-12-31T20:56:54.579Z,15.44
2022-12-31T21:02:21.120Z,15.44
2022-12-31T21:07:21.374Z,15.44
2022-12-31T21:12:41.742Z,15.48
2022-12-31T21:17:44.445Z,15.47
2022-12-31T21:22:48.520Z,15.49
2022-12-31T21:27:51.269Z,15.56
2022-12-31T21:32:53.968Z,15.57
2022-12-31T21:38:01.145Z,15.57
2022-12-31T21:43:03.875Z,15.58
2022-12-31T21:48:24.766Z,15.53
2022-12-31T21:53:36.227Z,15.52
2022-12-31T21:58:41.102Z,15.52
2022-12-31T22:03:44.584Z,15.53
2022-12-31T22:08:50.276Z,15.57
2022-12-31T22:13:53.888Z,15.60
2022-12-31T22:18:56.976Z,15.60
2022-12-31T22:24:03.003Z,15.64
2022-12-31T22:29:05.741Z,15.70
2022-12-31T22:34:08.629Z,15.74
2022-12-31T22:39:43.795Z,15.75
2022-12-31T22:44:38.818Z,15.70
2022-12-31T22:49:41.613Z,15.65
2022-12-31T22:54:45.666Z,15.63
2022-12-31T22:59:48.470Z,15.63
2022-12-31T23:04:51.169Z,15.64
2022-12-31T23:10:12.911Z,15.65
2022-12-31T23:15:32.920Z,15.65
2022-12-31T23:20:53.196Z,15.59
2022-12-31T23:26:02.047Z,15.58
2022-12-31T23:31:07.051Z,15.56
2022-12-31T23:36:10.018Z,15.52
2022-12-31T23:41:14.984Z,15.53
2022-12-31T23:46:18.327Z,15.47
2022-12-31T23:51:21.297Z,15.47
2022-12-31T23:56:25.431Z,15.45
